sensor_id;sensor_type;location;lat;lon;timestamp;P1;durP1;ratioP1;P2;durP2;ratioP2
69260;SDS011;56378;52.404;20.816;2022-11-20T00:00:27;38.55;;;15.55;;
69260;SDS011;56378;52.404;20.816;2022-11-20T00:02:52;40.57;;;15.87;;
69260;SDS011;56378;52.404;20.816;2022-11-20T00:05:18;38.45;;;15.15;;
69260;SDS011;56378;52.404;20.816;2022-11-20T00:07:44;37.55;;;15.25;;
69260;SDS011;56378;52.404;20.816;2022-11-20T00:10:10;36.97;;;15.40;;
69260;SDS011;56378;52.404;20.816;2022-11-20T00:12:36;42.72;;;17.50;;
69260;SDS011;56378;52.404;20.816;2022-11-20T00:15:02;40.03;;;16.37;;
69260;SDS011;56378;52.404;20.816;2022-11-20T00:17:28;41.25;;;15.88;;
69260;SDS011;56378;52.404;20.816;2022-11-20T00:19:53;40.10;;;15.63;;
69260;SDS011;56378;52.404;20.816;2022-11-20T00:22:19;45.47;;;15.90;;
69260;SDS011;56378;52.404;20.816;2022-11-20T00:24:45;38.43;;;16.03;;
69260;SDS011;56378;52.404;20.816;2022-11-20T00:27:12;41.58;;;15.80;;
69260;SDS011;56378;52.404;20.816;2022-11-20T00:29:38;41.95;;;15.55;;
69260;SDS011;56378;52.404;20.816;2022-11-20T00:32:04;42.83;;;16.43;;
69260;SDS011;56378;52.404;20.816;2022-11-20T00:34:29;40.10;;;15.70;;
69260;SDS011;56378;52.404;20.816;2022-11-20T00:36:55;42.30;;;15.38;;
69260;SDS011;56378;52.404;20.816;2022-11-20T00:39:21;41.60;;;15.40;;
69260;SDS011;56378;52.404;20.816;2022-11-20T00:41:46;39.27;;;16.30;;
69260;SDS011;56378;52.404;20.816;2022-11-20T00:44:12;42.08;;;17.08;;
69260;SDS011;56378;52.404;20.816;2022-11-20T00:46:38;49.97;;;17.17;;
69260;SDS011;56378;52.404;20.816;2022-11-20T00:49:04;39.25;;;16.58;;
69260;SDS011;56378;52.404;20.816;2022-11-20T00:51:29;45.67;;;16.90;;
69260;SDS011;56378;52.404;20.816;2022-11-20T00:53:58;41.63;;;16.90;;
69260;SDS011;56378;52.404;20.816;2022-11-20T00:56:25;45.85;;;17.40;;
69260;SDS011;56378;52.404;20.816;2022-11-20T00:58:51;43.42;;;17.05;;
69260;SDS011;56378;52.404;20.816;2022-11-20T01:01:17;40.43;;;16.07;;
69260;SDS011;56378;52.404;20.816;2022-11-20T01:03:46;42.05;;;16.38;;
69260;SDS011;56378;52.404;20.816;2022-11-20T01:06:14;43.72;;;17.52;;
69260;SDS011;56378;52.404;20.816;2022-11-20T01:08:42;42.17;;;16.97;;
69260;SDS011;56378;52.404;20.816;2022-11-20T01:11:10;43.28;;;16.17;;
69260;SDS011;56378;52.404;20.816;2022-11-20T01:13:38;45.78;;;17.27;;
69260;SDS011;56378;52.404;20.816;2022-11-20T01:16:12;44.53;;;17.35;;
69260;SDS011;56378;52.404;20.816;2022-11-20T01:18:40;47.53;;;17.65;;
69260;SDS011;56378;52.404;20.816;2022-11-20T01:21:08;44.70;;;16.87;;
69260;SDS011;56378;52.404;20.816;2022-11-20T01:23:37;42.50;;;16.92;;
69260;SDS011;56378;52.404;20.816;2022-11-20T01:26:05;42.83;;;17.08;;
69260;SDS011;56378;52.404;20.816;2022-11-20T01:28:33;40.90;;;15.98;;
69260;SDS011;56378;52.404;20.816;2022-11-20T01:31:00;41.03;;;16.67;;
69260;SDS011;56378;52.404;20.816;2022-11-20T01:33:26;44.13;;;16.43;;
69260;SDS011;56378;52.404;20.816;2022-11-20T01:35:52;43.00;;;16.85;;
69260;SDS011;56378;52.404;20.816;2022-11-20T01:38:18;38.85;;;15.80;;
69260;SDS011;56378;52.404;20.816;2022-11-20T01:40:54;40.67;;;16.25;;
69260;SDS011;56378;52.404;20.816;2022-11-20T01:43:22;43.92;;;16.33;;
69260;SDS011;56378;52.404;20.816;2022-11-20T01:48:25;43.30;;;17.13;;
69260;SDS011;56378;52.404;20.816;2022-11-20T01:50:54;39.00;;;15.30;;
69260;SDS011;56378;52.404;20.816;2022-11-20T01:53:23;39.17;;;15.65;;
69260;SDS011;56378;52.404;20.816;2022-11-20T01:55:58;43.25;;;15.80;;
69260;SDS011;56378;52.404;20.816;2022-11-20T01:58:27;35.40;;;15.17;;
69260;SDS011;56378;52.404;20.816;2022-11-20T02:00:56;39.30;;;15.55;;
69260;SDS011;56378;52.404;20.816;2022-11-20T02:03:22;44.70;;;16.52;;
69260;SDS011;56378;52.404;20.816;2022-11-20T02:08:39;38.25;;;15.25;;
69260;SDS011;56378;52.404;20.816;2022-11-20T02:11:05;39.03;;;16.13;;
69260;SDS011;56378;52.404;20.816;2022-11-20T02:13:32;40.10;;;14.60;;
69260;SDS011;56378;52.404;20.816;2022-11-20T02:16:24;39.17;;;14.87;;
69260;SDS011;56378;52.404;20.816;2022-11-20T02:18:53;40.80;;;15.63;;
69260;SDS011;56378;52.404;20.816;2022-11-20T02:21:23;37.58;;;15.05;;
69260;SDS011;56378;52.404;20.816;2022-11-20T02:26:30;36.47;;;14.68;;
69260;SDS011;56378;52.404;20.816;2022-11-20T02:28:59;33.57;;;13.50;;
69260;SDS011;56378;52.404;20.816;2022-11-20T02:31:27;37.75;;;15.05;;
69260;SDS011;56378;52.404;20.816;2022-11-20T02:33:58;34.83;;;14.43;;
69260;SDS011;56378;52.404;20.816;2022-11-20T02:36:26;36.00;;;14.43;;
69260;SDS011;56378;52.404;20.816;2022-11-20T02:38:53;38.37;;;15.53;;
69260;SDS011;56378;52.404;20.816;2022-11-20T02:41:19;35.90;;;14.35;;
69260;SDS011;56378;52.404;20.816;2022-11-20T02:43:45;37.45;;;14.95;;
69260;SDS011;56378;52.404;20.816;2022-11-20T02:46:11;41.07;;;15.17;;
69260;SDS011;56378;52.404;20.816;2022-11-20T02:48:37;36.78;;;14.25;;
69260;SDS011;56378;52.404;20.816;2022-11-20T02:51:02;36.13;;;14.67;;
69260;SDS011;56378;52.404;20.816;2022-11-20T02:53:28;37.92;;;15.23;;
69260;SDS011;56378;52.404;20.816;2022-11-20T02:55:54;35.50;;;14.27;;
69260;SDS011;56378;52.404;20.816;2022-11-20T02:58:20;34.42;;;14.07;;
69260;SDS011;56378;52.404;20.816;2022-11-20T03:00:45;38.22;;;15.45;;
69260;SDS011;56378;52.404;20.816;2022-11-20T03:03:11;36.83;;;14.00;;
69260;SDS011;56378;52.404;20.816;2022-11-20T03:05:37;37.50;;;14.32;;
69260;SDS011;56378;52.404;20.816;2022-11-20T03:08:03;35.67;;;14.53;;
69260;SDS011;56378;52.404;20.816;2022-11-20T03:10:28;36.95;;;14.77;;
69260;SDS011;56378;52.404;20.816;2022-11-20T03:12:55;37.83;;;14.47;;
69260;SDS011;56378;52.404;20.816;2022-11-20T03:15:27;34.58;;;14.77;;
69260;SDS011;56378;52.404;20.816;2022-11-20T03:17:53;37.65;;;14.50;;
69260;SDS011;56378;52.404;20.816;2022-11-20T03:20:20;38.13;;;15.27;;
69260;SDS011;56378;52.404;20.816;2022-11-20T03:22:46;36.27;;;15.17;;
69260;SDS011;56378;52.404;20.816;2022-11-20T03:25:12;39.45;;;15.10;;
69260;SDS011;56378;52.404;20.816;2022-11-20T03:27:38;35.73;;;14.13;;
69260;SDS011;56378;52.404;20.816;2022-11-20T03:30:04;37.95;;;14.45;;
69260;SDS011;56378;52.404;20.816;2022-11-20T03:32:30;38.40;;;14.65;;
69260;SDS011;56378;52.404;20.816;2022-11-20T03:34:56;35.97;;;14.70;;
69260;SDS011;56378;52.404;20.816;2022-11-20T03:37:22;42.90;;;15.10;;
69260;SDS011;56378;52.404;20.816;2022-11-20T03:39:47;41.97;;;15.30;;
69260;SDS011;56378;52.404;20.816;2022-11-20T03:42:13;36.35;;;14.85;;
69260;SDS011;56378;52.404;20.816;2022-11-20T03:44:57;36.15;;;15.05;;
69260;SDS011;56378;52.404;20.816;2022-11-20T03:47:23;38.03;;;15.87;;
69260;SDS011;56378;52.404;20.816;2022-11-20T03:49:49;38.58;;;14.43;;
69260;SDS011;56378;52.404;20.816;2022-11-20T03:52:15;44.37;;;18.47;;
69260;SDS011;56378;52.404;20.816;2022-11-20T03:54:40;36.05;;;14.82;;
69260;SDS011;56378;52.404;20.816;2022-11-20T03:57:06;38.67;;;15.13;;
69260;SDS011;56378;52.404;20.816;2022-11-20T03:59:31;35.60;;;15.45;;
69260;SDS011;56378;52.404;20.816;2022-11-20T04:01:57;40.27;;;14.80;;
69260;SDS011;56378;52.404;20.816;2022-11-20T04:04:23;37.30;;;14.70;;
69260;SDS011;56378;52.404;20.816;2022-11-20T04:06:49;39.87;;;15.80;;
69260;SDS011;56378;52.404;20.816;2022-11-20T04:09:15;39.33;;;15.48;;
69260;SDS011;56378;52.404;20.816;2022-11-20T04:11:41;43.23;;;15.60;;
69260;SDS011;56378;52.404;20.816;2022-11-20T04:14:11;43.65;;;15.82;;
69260;SDS011;56378;52.404;20.816;2022-11-20T04:16:39;37.20;;;14.75;;
69260;SDS011;56378;52.404;20.816;2022-11-20T04:19:08;37.17;;;14.93;;
69260;SDS011;56378;52.404;20.816;2022-11-20T04:21:35;40.38;;;14.55;;
69260;SDS011;56378;52.404;20.816;2022-11-20T04:24:01;39.50;;;15.05;;
69260;SDS011;56378;52.404;20.816;2022-11-20T04:26:27;37.73;;;14.07;;
69260;SDS011;56378;52.404;20.816;2022-11-20T04:28:54;38.53;;;15.32;;
69260;SDS011;56378;52.404;20.816;2022-11-20T04:31:22;38.05;;;14.30;;
69260;SDS011;56378;52.404;20.816;2022-11-20T04:33:49;38.53;;;14.65;;
69260;SDS011;56378;52.404;20.816;2022-11-20T04:36:16;36.97;;;14.75;;
69260;SDS011;56378;52.404;20.816;2022-11-20T04:41:20;40.85;;;15.52;;
69260;SDS011;56378;52.404;20.816;2022-11-20T04:43:47;37.75;;;15.50;;
69260;SDS011;56378;52.404;20.816;2022-11-20T04:46:14;38.03;;;14.93;;
69260;SDS011;56378;52.404;20.816;2022-11-20T04:48:41;40.38;;;15.93;;
69260;SDS011;56378;52.404;20.816;2022-11-20T04:51:07;38.13;;;15.30;;
69260;SDS011;56378;52.404;20.816;2022-11-20T04:53:32;39.90;;;15.23;;
69260;SDS011;56378;52.404;20.816;2022-11-20T04:55:59;38.73;;;15.23;;
69260;SDS011;56378;52.404;20.816;2022-11-20T04:58:29;40.67;;;15.40;;
69260;SDS011;56378;52.404;20.816;2022-11-20T05:01:06;39.10;;;15.48;;
69260;SDS011;56378;52.404;20.816;2022-11-20T05:03:34;40.43;;;15.87;;
69260;SDS011;56378;52.404;20.816;2022-11-20T05:06:00;39.65;;;15.68;;
69260;SDS011;56378;52.404;20.816;2022-11-20T05:08:28;42.00;;;15.90;;
69260;SDS011;56378;52.404;20.816;2022-11-20T05:10:58;41.00;;;15.60;;
69260;SDS011;56378;52.404;20.816;2022-11-20T05:13:28;40.72;;;16.15;;
69260;SDS011;56378;52.404;20.816;2022-11-20T05:15:54;39.63;;;16.33;;
69260;SDS011;56378;52.404;20.816;2022-11-20T05:18:20;41.23;;;15.73;;
69260;SDS011;56378;52.404;20.816;2022-11-20T05:20:45;40.20;;;15.38;;
69260;SDS011;56378;52.404;20.816;2022-11-20T05:23:11;40.63;;;16.17;;
69260;SDS011;56378;52.404;20.816;2022-11-20T05:25:37;37.30;;;15.52;;
69260;SDS011;56378;52.404;20.816;2022-11-20T05:28:02;41.60;;;15.53;;
69260;SDS011;56378;52.404;20.816;2022-11-20T05:30:28;39.60;;;14.88;;
69260;SDS011;56378;52.404;20.816;2022-11-20T05:32:54;41.58;;;16.40;;
69260;SDS011;56378;52.404;20.816;2022-11-20T05:35:19;38.72;;;15.82;;
69260;SDS011;56378;52.404;20.816;2022-11-20T05:37:45;40.90;;;14.93;;
69260;SDS011;56378;52.404;20.816;2022-11-20T05:40:11;41.03;;;16.05;;
69260;SDS011;56378;52.404;20.816;2022-11-20T05:42:37;41.92;;;15.93;;
69260;SDS011;56378;52.404;20.816;2022-11-20T05:45:03;38.53;;;15.33;;
69260;SDS011;56378;52.404;20.816;2022-11-20T05:47:33;39.38;;;16.23;;
69260;SDS011;56378;52.404;20.816;2022-11-20T05:50:00;39.67;;;15.63;;
69260;SDS011;56378;52.404;20.816;2022-11-20T05:52:29;39.23;;;15.20;;
69260;SDS011;56378;52.404;20.816;2022-11-20T05:54:55;46.15;;;15.95;;
69260;SDS011;56378;52.404;20.816;2022-11-20T05:57:21;42.60;;;15.73;;
69260;SDS011;56378;52.404;20.816;2022-11-20T05:59:47;41.03;;;15.10;;
69260;SDS011;56378;52.404;20.816;2022-11-20T06:02:13;44.40;;;16.40;;
69260;SDS011;56378;52.404;20.816;2022-11-20T06:04:39;40.13;;;14.90;;
69260;SDS011;56378;52.404;20.816;2022-11-20T06:07:05;42.77;;;15.37;;
69260;SDS011;56378;52.404;20.816;2022-11-20T06:09:31;43.40;;;16.40;;
69260;SDS011;56378;52.404;20.816;2022-11-20T06:11:57;40.50;;;15.60;;
69260;SDS011;56378;52.404;20.816;2022-11-20T06:14:23;39.90;;;15.80;;
69260;SDS011;56378;52.404;20.816;2022-11-20T06:16:48;48.10;;;15.63;;
69260;SDS011;56378;52.404;20.816;2022-11-20T06:19:14;40.23;;;16.03;;
69260;SDS011;56378;52.404;20.816;2022-11-20T06:21:40;44.63;;;16.13;;
69260;SDS011;56378;52.404;20.816;2022-11-20T06:24:06;38.72;;;15.50;;
69260;SDS011;56378;52.404;20.816;2022-11-20T06:26:33;43.53;;;15.70;;
69260;SDS011;56378;52.404;20.816;2022-11-20T06:28:59;45.45;;;16.05;;
69260;SDS011;56378;52.404;20.816;2022-11-20T06:31:25;42.28;;;15.70;;
69260;SDS011;56378;52.404;20.816;2022-11-20T06:33:51;42.50;;;17.00;;
69260;SDS011;56378;52.404;20.816;2022-11-20T06:36:19;44.85;;;17.23;;
69260;SDS011;56378;52.404;20.816;2022-11-20T06:38:46;47.35;;;17.38;;
69260;SDS011;56378;52.404;20.816;2022-11-20T06:41:13;39.22;;;16.20;;
69260;SDS011;56378;52.404;20.816;2022-11-20T06:43:46;47.87;;;17.07;;
69260;SDS011;56378;52.404;20.816;2022-11-20T06:46:12;41.72;;;16.48;;
69260;SDS011;56378;52.404;20.816;2022-11-20T06:48:39;38.97;;;16.83;;
69260;SDS011;56378;52.404;20.816;2022-11-20T06:51:06;40.13;;;16.65;;
69260;SDS011;56378;52.404;20.816;2022-11-20T06:53:32;41.33;;;15.68;;
69260;SDS011;56378;52.404;20.816;2022-11-20T06:55:59;45.17;;;16.37;;
69260;SDS011;56378;52.404;20.816;2022-11-20T06:58:28;41.10;;;16.85;;
69260;SDS011;56378;52.404;20.816;2022-11-20T07:01:06;41.72;;;16.38;;
69260;SDS011;56378;52.404;20.816;2022-11-20T07:03:36;44.47;;;16.40;;
69260;SDS011;56378;52.404;20.816;2022-11-20T07:06:02;41.00;;;16.60;;
69260;SDS011;56378;52.404;20.816;2022-11-20T07:08:31;43.67;;;15.87;;
69260;SDS011;56378;52.404;20.816;2022-11-20T07:10:58;37.90;;;16.05;;
69260;SDS011;56378;52.404;20.816;2022-11-20T07:13:25;40.47;;;16.45;;
69260;SDS011;56378;52.404;20.816;2022-11-20T07:15:51;42.25;;;16.08;;
69260;SDS011;56378;52.404;20.816;2022-11-20T07:18:17;46.45;;;17.20;;
69260;SDS011;56378;52.404;20.816;2022-11-20T07:20:43;41.57;;;15.17;;
69260;SDS011;56378;52.404;20.816;2022-11-20T07:23:09;44.33;;;16.92;;
69260;SDS011;56378;52.404;20.816;2022-11-20T07:25:34;40.57;;;15.33;;
69260;SDS011;56378;52.404;20.816;2022-11-20T07:28:01;44.60;;;16.00;;
69260;SDS011;56378;52.404;20.816;2022-11-20T07:30:27;40.45;;;16.33;;
69260;SDS011;56378;52.404;20.816;2022-11-20T07:32:53;39.57;;;16.33;;
69260;SDS011;56378;52.404;20.816;2022-11-20T07:35:20;39.30;;;16.05;;
69260;SDS011;56378;52.404;20.816;2022-11-20T07:37:47;46.83;;;16.98;;
69260;SDS011;56378;52.404;20.816;2022-11-20T07:40:13;39.78;;;16.58;;
69260;SDS011;56378;52.404;20.816;2022-11-20T07:42:50;40.70;;;16.08;;
69260;SDS011;56378;52.404;20.816;2022-11-20T07:45:17;39.87;;;15.00;;
69260;SDS011;56378;52.404;20.816;2022-11-20T07:47:44;42.50;;;16.70;;
69260;SDS011;56378;52.404;20.816;2022-11-20T07:50:10;45.97;;;17.88;;
69260;SDS011;56378;52.404;20.816;2022-11-20T07:52:36;42.20;;;16.77;;
69260;SDS011;56378;52.404;20.816;2022-11-20T07:55:02;39.65;;;16.27;;
69260;SDS011;56378;52.404;20.816;2022-11-20T07:57:28;39.72;;;16.15;;
69260;SDS011;56378;52.404;20.816;2022-11-20T07:59:54;41.00;;;16.27;;
69260;SDS011;56378;52.404;20.816;2022-11-20T08:02:19;41.20;;;16.15;;
69260;SDS011;56378;52.404;20.816;2022-11-20T08:04:45;40.83;;;16.10;;
69260;SDS011;56378;52.404;20.816;2022-11-20T08:07:11;41.03;;;16.58;;
69260;SDS011;56378;52.404;20.816;2022-11-20T08:09:36;44.07;;;17.23;;
69260;SDS011;56378;52.404;20.816;2022-11-20T08:12:02;41.67;;;17.00;;
69260;SDS011;56378;52.404;20.816;2022-11-20T08:14:46;41.00;;;16.17;;
69260;SDS011;56378;52.404;20.816;2022-11-20T08:17:12;44.60;;;16.30;;
69260;SDS011;56378;52.404;20.816;2022-11-20T08:19:38;41.27;;;16.43;;
69260;SDS011;56378;52.404;20.816;2022-11-20T08:22:04;42.90;;;16.92;;
69260;SDS011;56378;52.404;20.816;2022-11-20T08:24:29;53.40;;;19.53;;
69260;SDS011;56378;52.404;20.816;2022-11-20T08:26:57;45.80;;;18.27;;
69260;SDS011;56378;52.404;20.816;2022-11-20T08:29:24;46.15;;;17.52;;
69260;SDS011;56378;52.404;20.816;2022-11-20T08:31:51;39.47;;;15.87;;
69260;SDS011;56378;52.404;20.816;2022-11-20T08:34:16;46.72;;;17.73;;
69260;SDS011;56378;52.404;20.816;2022-11-20T08:36:43;45.47;;;17.73;;
69260;SDS011;56378;52.404;20.816;2022-11-20T08:39:11;41.60;;;17.23;;
69260;SDS011;56378;52.404;20.816;2022-11-20T08:41:37;45.85;;;17.77;;
69260;SDS011;56378;52.404;20.816;2022-11-20T08:44:03;41.13;;;17.63;;
69260;SDS011;56378;52.404;20.816;2022-11-20T08:46:32;48.87;;;18.90;;
69260;SDS011;56378;52.404;20.816;2022-11-20T08:49:02;41.50;;;17.65;;
69260;SDS011;56378;52.404;20.816;2022-11-20T08:51:28;47.20;;;17.02;;
69260;SDS011;56378;52.404;20.816;2022-11-20T08:53:54;40.55;;;16.83;;
69260;SDS011;56378;52.404;20.816;2022-11-20T08:56:20;42.87;;;17.40;;
69260;SDS011;56378;52.404;20.816;2022-11-20T08:58:55;48.42;;;18.98;;
69260;SDS011;56378;52.404;20.816;2022-11-20T09:01:24;43.93;;;18.53;;
69260;SDS011;56378;52.404;20.816;2022-11-20T09:03:50;55.33;;;25.98;;
69260;SDS011;56378;52.404;20.816;2022-11-20T09:06:16;46.17;;;19.48;;
69260;SDS011;56378;52.404;20.816;2022-11-20T09:08:42;48.17;;;21.15;;
69260;SDS011;56378;52.404;20.816;2022-11-20T09:11:10;42.43;;;18.43;;
69260;SDS011;56378;52.404;20.816;2022-11-20T09:13:36;50.95;;;21.10;;
69260;SDS011;56378;52.404;20.816;2022-11-20T09:16:04;49.22;;;22.00;;
69260;SDS011;56378;52.404;20.816;2022-11-20T09:18:32;48.88;;;19.13;;
69260;SDS011;56378;52.404;20.816;2022-11-20T09:21:02;45.75;;;19.83;;
69260;SDS011;56378;52.404;20.816;2022-11-20T09:23:34;49.17;;;19.87;;
69260;SDS011;56378;52.404;20.816;2022-11-20T09:26:09;47.90;;;18.70;;
69260;SDS011;56378;52.404;20.816;2022-11-20T09:28:45;44.60;;;18.17;;
69260;SDS011;56378;52.404;20.816;2022-11-20T09:31:19;46.28;;;18.58;;
69260;SDS011;56378;52.404;20.816;2022-11-20T09:33:47;54.00;;;21.90;;
69260;SDS011;56378;52.404;20.816;2022-11-20T09:38:51;48.25;;;18.52;;
69260;SDS011;56378;52.404;20.816;2022-11-20T09:44:01;43.72;;;17.15;;
69260;SDS011;56378;52.404;20.816;2022-11-20T09:46:55;42.90;;;16.73;;
69260;SDS011;56378;52.404;20.816;2022-11-20T09:52:49;45.67;;;17.98;;
69260;SDS011;56378;52.404;20.816;2022-11-20T09:55:43;40.10;;;16.10;;
69260;SDS011;56378;52.404;20.816;2022-11-20T09:58:14;40.33;;;16.63;;
69260;SDS011;56378;52.404;20.816;2022-11-20T10:00:49;39.10;;;15.77;;
69260;SDS011;56378;52.404;20.816;2022-11-20T10:03:17;39.67;;;16.73;;
69260;SDS011;56378;52.404;20.816;2022-11-20T10:05:51;46.25;;;17.80;;
69260;SDS011;56378;52.404;20.816;2022-11-20T10:08:24;47.90;;;17.35;;
69260;SDS011;56378;52.404;20.816;2022-11-20T10:19:21;46.58;;;20.15;;
69260;SDS011;56378;52.404;20.816;2022-11-20T10:22:15;42.78;;;17.88;;
69260;SDS011;56378;52.404;20.816;2022-11-20T10:24:50;51.28;;;22.27;;
69260;SDS011;56378;52.404;20.816;2022-11-20T10:30:28;46.60;;;20.00;;
69260;SDS011;56378;52.404;20.816;2022-11-20T10:32:57;44.88;;;18.95;;
69260;SDS011;56378;52.404;20.816;2022-11-20T10:35:38;43.95;;;19.25;;
69260;SDS011;56378;52.404;20.816;2022-11-20T10:38:21;51.40;;;21.45;;
69260;SDS011;56378;52.404;20.816;2022-11-20T10:40:55;44.85;;;18.98;;
69260;SDS011;56378;52.404;20.816;2022-11-20T10:43:44;48.17;;;19.95;;
69260;SDS011;56378;52.404;20.816;2022-11-20T10:46:21;52.03;;;20.92;;
69260;SDS011;56378;52.404;20.816;2022-11-20T10:48:48;50.88;;;20.38;;
69260;SDS011;56378;52.404;20.816;2022-11-20T10:51:18;48.90;;;20.83;;
69260;SDS011;56378;52.404;20.816;2022-11-20T10:54:23;46.72;;;18.83;;
69260;SDS011;56378;52.404;20.816;2022-11-20T11:00:20;41.97;;;18.25;;
69260;SDS011;56378;52.404;20.816;2022-11-20T11:02:47;46.03;;;18.52;;
69260;SDS011;56378;52.404;20.816;2022-11-20T11:05:31;46.73;;;19.07;;
69260;SDS011;56378;52.404;20.816;2022-11-20T11:08:49;50.88;;;19.27;;
69260;SDS011;56378;52.404;20.816;2022-11-20T11:24:51;42.75;;;17.13;;
69260;SDS011;56378;52.404;20.816;2022-11-20T11:27:17;45.55;;;18.13;;
69260;SDS011;56378;52.404;20.816;2022-11-20T11:29:43;45.22;;;18.65;;
69260;SDS011;56378;52.404;20.816;2022-11-20T11:35:49;42.70;;;16.90;;
69260;SDS011;56378;52.404;20.816;2022-11-20T11:41:16;38.15;;;14.10;;
69260;SDS011;56378;52.404;20.816;2022-11-20T11:43:56;35.20;;;14.02;;
69260;SDS011;56378;52.404;20.816;2022-11-20T11:46:59;38.20;;;14.37;;
69260;SDS011;56378;52.404;20.816;2022-11-20T11:49:25;36.08;;;14.18;;
69260;SDS011;56378;52.404;20.816;2022-11-20T12:13:11;37.72;;;13.20;;
69260;SDS011;56378;52.404;20.816;2022-11-20T12:15:45;34.15;;;13.35;;
69260;SDS011;56378;52.404;20.816;2022-11-20T12:18:24;31.65;;;13.18;;
69260;SDS011;56378;52.404;20.816;2022-11-20T12:26:13;35.17;;;15.02;;
69260;SDS011;56378;52.404;20.816;2022-11-20T12:40:53;36.05;;;14.57;;
69260;SDS011;56378;52.404;20.816;2022-11-20T12:43:39;33.83;;;13.95;;
69260;SDS011;56378;52.404;20.816;2022-11-20T12:46:46;35.97;;;14.65;;
69260;SDS011;56378;52.404;20.816;2022-11-20T12:52:13;36.67;;;14.82;;
69260;SDS011;56378;52.404;20.816;2022-11-20T13:07:16;37.20;;;13.95;;
69260;SDS011;56378;52.404;20.816;2022-11-20T13:19:25;33.22;;;14.00;;
69260;SDS011;56378;52.404;20.816;2022-11-20T13:21:53;35.33;;;13.73;;
69260;SDS011;56378;52.404;20.816;2022-11-20T13:29:44;34.15;;;14.00;;
69260;SDS011;56378;52.404;20.816;2022-11-20T13:32:24;31.57;;;13.27;;
69260;SDS011;56378;52.404;20.816;2022-11-20T13:34:56;35.20;;;13.98;;
69260;SDS011;56378;52.404;20.816;2022-11-20T13:40:11;36.00;;;13.95;;
69260;SDS011;56378;52.404;20.816;2022-11-20T13:42:39;33.57;;;13.70;;
69260;SDS011;56378;52.404;20.816;2022-11-20T13:47:55;32.80;;;14.20;;
69260;SDS011;56378;52.404;20.816;2022-11-20T13:50:45;36.88;;;14.10;;
69260;SDS011;56378;52.404;20.816;2022-11-20T13:56:47;34.97;;;13.53;;
69260;SDS011;56378;52.404;20.816;2022-11-20T14:01:47;37.30;;;15.32;;
69260;SDS011;56378;52.404;20.816;2022-11-20T14:04:15;34.30;;;14.40;;
69260;SDS011;56378;52.404;20.816;2022-11-20T14:06:50;37.50;;;14.65;;
69260;SDS011;56378;52.404;20.816;2022-11-20T14:09:28;35.20;;;14.15;;
69260;SDS011;56378;52.404;20.816;2022-11-20T14:11:55;34.40;;;13.40;;
69260;SDS011;56378;52.404;20.816;2022-11-20T14:14:23;33.35;;;14.43;;
69260;SDS011;56378;52.404;20.816;2022-11-20T14:16:50;37.50;;;15.02;;
69260;SDS011;56378;52.404;20.816;2022-11-20T14:19:30;36.05;;;14.48;;
69260;SDS011;56378;52.404;20.816;2022-11-20T14:22:10;33.97;;;14.38;;
69260;SDS011;56378;52.404;20.816;2022-11-20T14:25:01;35.38;;;14.52;;
69260;SDS011;56378;52.404;20.816;2022-11-20T14:27:29;36.63;;;15.13;;
69260;SDS011;56378;52.404;20.816;2022-11-20T14:30:01;36.55;;;14.30;;
69260;SDS011;56378;52.404;20.816;2022-11-20T14:32:28;38.72;;;14.82;;
69260;SDS011;56378;52.404;20.816;2022-11-20T14:34:55;33.35;;;14.52;;
69260;SDS011;56378;52.404;20.816;2022-11-20T14:37:27;35.13;;;14.13;;
69260;SDS011;56378;52.404;20.816;2022-11-20T14:39:58;36.13;;;14.63;;
69260;SDS011;56378;52.404;20.816;2022-11-20T14:42:27;35.65;;;14.43;;
69260;SDS011;56378;52.404;20.816;2022-11-20T14:44:57;37.35;;;14.65;;
69260;SDS011;56378;52.404;20.816;2022-11-20T14:47:25;36.50;;;15.00;;
69260;SDS011;56378;52.404;20.816;2022-11-20T14:49:54;38.83;;;14.80;;
69260;SDS011;56378;52.404;20.816;2022-11-20T14:52:25;38.45;;;15.30;;
69260;SDS011;56378;52.404;20.816;2022-11-20T14:54:56;34.58;;;14.38;;
69260;SDS011;56378;52.404;20.816;2022-11-20T14:57:27;44.58;;;17.65;;
69260;SDS011;56378;52.404;20.816;2022-11-20T15:02:30;46.83;;;18.37;;
69260;SDS011;56378;52.404;20.816;2022-11-20T15:04:56;42.50;;;17.48;;
69260;SDS011;56378;52.404;20.816;2022-11-20T15:07:25;44.72;;;18.27;;
69260;SDS011;56378;52.404;20.816;2022-11-20T15:09:59;47.83;;;18.60;;
69260;SDS011;56378;52.404;20.816;2022-11-20T15:12:25;50.38;;;18.52;;
69260;SDS011;56378;52.404;20.816;2022-11-20T15:15:00;47.15;;;18.70;;
69260;SDS011;56378;52.404;20.816;2022-11-20T15:17:27;42.63;;;18.10;;
69260;SDS011;56378;52.404;20.816;2022-11-20T15:19:54;45.95;;;18.08;;
69260;SDS011;56378;52.404;20.816;2022-11-20T15:22:20;44.42;;;18.65;;
69260;SDS011;56378;52.404;20.816;2022-11-20T15:24:46;44.27;;;17.60;;
69260;SDS011;56378;52.404;20.816;2022-11-20T15:27:12;43.10;;;18.60;;
69260;SDS011;56378;52.404;20.816;2022-11-20T15:29:37;43.50;;;18.47;;
69260;SDS011;56378;52.404;20.816;2022-11-20T15:32:03;44.40;;;18.45;;
69260;SDS011;56378;52.404;20.816;2022-11-20T15:34:29;45.20;;;18.53;;
69260;SDS011;56378;52.404;20.816;2022-11-20T15:36:55;46.83;;;19.10;;
69260;SDS011;56378;52.404;20.816;2022-11-20T15:39:20;47.57;;;19.23;;
69260;SDS011;56378;52.404;20.816;2022-11-20T15:41:48;53.28;;;22.00;;
69260;SDS011;56378;52.404;20.816;2022-11-20T15:44:14;59.72;;;22.98;;
69260;SDS011;56378;52.404;20.816;2022-11-20T15:46:40;69.73;;;25.33;;
69260;SDS011;56378;52.404;20.816;2022-11-20T15:49:12;67.38;;;27.83;;
69260;SDS011;56378;52.404;20.816;2022-11-20T15:51:41;68.45;;;26.77;;
69260;SDS011;56378;52.404;20.816;2022-11-20T15:54:15;62.03;;;24.55;;
69260;SDS011;56378;52.404;20.816;2022-11-20T15:56:44;51.60;;;21.15;;
69260;SDS011;56378;52.404;20.816;2022-11-20T15:59:14;52.47;;;20.30;;
69260;SDS011;56378;52.404;20.816;2022-11-20T16:01:40;48.63;;;20.08;;
69260;SDS011;56378;52.404;20.816;2022-11-20T16:04:10;48.75;;;21.13;;
69260;SDS011;56378;52.404;20.816;2022-11-20T16:06:37;48.50;;;20.27;;
69260;SDS011;56378;52.404;20.816;2022-11-20T16:09:03;51.67;;;21.25;;
69260;SDS011;56378;52.404;20.816;2022-11-20T16:11:29;57.72;;;23.17;;
69260;SDS011;56378;52.404;20.816;2022-11-20T16:13:54;55.15;;;23.23;;
69260;SDS011;56378;52.404;20.816;2022-11-20T16:16:39;52.47;;;20.33;;
69260;SDS011;56378;52.404;20.816;2022-11-20T16:19:09;48.95;;;19.27;;
69260;SDS011;56378;52.404;20.816;2022-11-20T16:21:38;57.10;;;20.38;;
69260;SDS011;56378;52.404;20.816;2022-11-20T16:24:07;51.75;;;19.58;;
69260;SDS011;56378;52.404;20.816;2022-11-20T16:26:35;47.28;;;18.63;;
69260;SDS011;56378;52.404;20.816;2022-11-20T16:29:03;46.10;;;18.53;;
69260;SDS011;56378;52.404;20.816;2022-11-20T16:31:30;47.45;;;17.85;;
69260;SDS011;56378;52.404;20.816;2022-11-20T16:33:57;44.92;;;18.23;;
69260;SDS011;56378;52.404;20.816;2022-11-20T16:36:26;47.13;;;17.92;;